Time;durP1;ratioP1;P1;durP2;ratioP2;P2;SDS_P1;SDS_P2;PMS_P1;PMS_P2;Temp;Humidity;BMP_temperature;BMP_pressure;BME280_temperature;BME280_humidity;BME280_pressure;Samples;Min_cycle;Max_cycle;Signal;HPM_P1;HPM_P2
2023/07/30 00:00:13;;;;;;;2.25;1.50;;;;;;;28.00;46.78;98603.84;2084311;28;20515;-49
2023/07/30 00:01:15;;;;;;;2.38;1.85;;;;;;;28.02;46.44;98610.69;2086596;28;20138;-48
2023/07/30 00:02:17;;;;;;;5.30;1.98;;;;;;;28.02;46.62;98609.88;2084387;28;20465;-49
2023/07/30 00:03:18;;;;;;;4.10;1.75;;;;;;;27.97;46.37;98609.84;2085880;28;20059;-50
2023/07/30 00:04:20;;;;;;;3.45;1.60;;;;;;;27.97;46.39;98607.97;2088093;28;20529;-49
2023/07/30 00:05:21;;;;;;;6.55;2.10;;;;;;;27.92;46.57;98607.13;2086439;28;20049;-49
2023/07/30 00:06:22;;;;;;;2.05;1.45;;;;;;;27.94;46.62;98602.19;2086760;28;20388;-47
2023/07/30 00:07:24;;;;;;;2.83;1.63;;;;;;;27.90;46.71;98595.66;2084783;28;20056;-48
2023/07/30 00:08:25;;;;;;;2.95;1.77;;;;;;;27.86;46.72;98606.28;2078329;28;20135;-49
2023/07/30 00:09:26;;;;;;;2.55;1.50;;;;;;;27.86;46.64;98598.09;2079867;28;20160;-47
2023/07/30 00:10:27;;;;;;;2.38;1.58;;;;;;;27.82;46.41;98599.69;2079406;28;20073;-48
2023/07/30 00:11:29;;;;;;;2.65;1.73;;;;;;;27.82;46.41;98599.69;2076482;28;20049;-51
2023/07/30 00:12:30;;;;;;;2.17;1.85;;;;;;;27.83;46.59;98594.00;2076370;28;20565;-48
2023/07/30 00:13:31;;;;;;;3.63;1.88;;;;;;;27.79;46.55;98601.03;2071885;28;21204;-49
2023/07/30 00:14:32;;;;;;;3.22;1.85;;;;;;;27.77;46.71;98603.16;2078262;28;20468;-48
2023/07/30 00:15:34;;;;;;;4.78;2.10;;;;;;;27.80;46.33;98590.94;2076385;28;20056;-49
2023/07/30 00:16:36;;;;;;;2.40;1.83;;;;;;;27.70;46.40;98591.72;2080375;28;20107;-49
2023/07/30 00:17:38;;;;;;;3.78;2.20;;;;;;;27.71;46.48;98584.34;2078130;28;20045;-49
2023/07/30 00:18:39;;;;;;;4.95;2.00;;;;;;;27.71;46.98;98593.34;2079603;28;20065;-50
2023/07/30 00:19:40;;;;;;;3.58;1.52;;;;;;;27.66;46.44;98585.13;2078751;28;20846;-49
2023/07/30 00:20:41;;;;;;;5.47;2.08;;;;;;;27.62;46.82;98579.41;2079389;28;20057;-48
2023/07/30 00:21:46;;;;;;;5.10;2.40;;;;;;;27.57;46.69;98573.09;2080433;28;20084;-48
2023/07/30 00:22:47;;;;;;;2.30;1.75;;;;;;;27.59;46.82;98568.22;2077739;28;20041;-49
2023/07/30 00:23:48;;;;;;;3.38;1.98;;;;;;;27.65;46.89;98571.78;2081497;28;20073;-49
2023/07/30 00:24:50;;;;;;;4.18;1.88;;;;;;;27.70;46.50;98578.09;2079146;28;20045;-49
2023/07/30 00:25:51;;;;;;;4.35;2.38;;;;;;;27.71;46.64;98571.53;2076698;28;20887;-49
2023/07/30 00:26:51;;;;;;;2.80;1.75;;;;;;;27.71;46.32;98579.72;2080665;28;20063;-48
2023/07/30 00:27:53;;;;;;;3.22;2.47;;;;;;;27.65;46.51;98574.50;2087117;28;20407;-49
2023/07/30 00:28:54;;;;;;;3.10;1.70;;;;;;;27.54;47.10;98574.44;2087278;28;20132;-50
2023/07/30 00:29:56;;;;;;;4.28;1.92;;;;;;;27.58;47.09;98575.56;2085769;28;20048;-49
2023/07/30 00:30:57;;;;;;;2.10;1.83;;;;;;;27.58;46.57;98582.91;2085722;28;20151;-50
2023/07/30 00:32:00;;;;;;;1.88;1.55;;;;;;;27.48;47.04;98574.69;2086941;28;20091;-50
2023/07/30 00:33:00;;;;;;;2.30;1.60;;;;;;;27.42;46.84;98578.47;2089116;28;20472;-49
2023/07/30 00:34:02;;;;;;;3.65;2.08;;;;;;;27.38;47.05;98576.25;2084915;28;20391;-48
2023/07/30 00:35:04;;;;;;;3.20;1.60;;;;;;;27.45;47.30;98573.31;2085122;28;20079;-47
2023/07/30 00:36:06;;;;;;;2.65;1.52;;;;;;;27.49;47.20;98579.84;2085580;28;20060;-47
2023/07/30 00:37:06;;;;;;;2.47;1.63;;;;;;;27.52;47.27;98581.25;2084199;28;20041;-48
2023/07/30 00:38:08;;;;;;;3.17;2.28;;;;;;;27.49;47.14;98587.22;2087165;28;20580;-48
2023/07/30 00:39:11;;;;;;;3.15;2.22;;;;;;;27.50;47.15;98580.69;2086890;28;20473;-48
2023/07/30 00:40:13;;;;;;;3.70;1.88;;;;;;;27.53;46.84;98580.19;2086594;28;20051;-49
2023/07/30 00:41:14;;;;;;;2.40;1.95;;;;;;;27.53;47.00;98583.72;2087449;28;20379;-47
2023/07/30 00:42:15;;;;;;;4.35;1.80;;;;;;;27.56;46.97;98587.81;2087754;28;20067;-48
2023/07/30 00:43:16;;;;;;;3.10;1.40;;;;;;;27.57;47.00;98589.44;2084365;28;20052;-49
2023/07/30 00:44:18;;;;;;;8.52;2.28;;;;;;;27.60;46.71;98587.00;2086492;28;20137;-49
2023/07/30 00:45:19;;;;;;;2.47;1.63;;;;;;;27.62;47.11;98587.56;2087245;28;20091;-50
2023/07/30 00:46:21;;;;;;;3.30;1.75;;;;;;;27.63;47.10;98585.66;2087618;28;20058;-49
2023/07/30 00:47:23;;;;;;;4.32;2.17;;;;;;;27.69;46.74;98591.97;2085746;28;20055;-49
2023/07/30 00:48:24;;;;;;;3.70;2.40;;;;;;;27.67;46.86;98592.25;2081989;28;20379;-48
2023/07/30 00:49:26;;;;;;;3.90;2.13;;;;;;;27.68;46.93;98593.88;2084980;28;20453;-48
2023/07/30 00:50:28;;;;;;;3.60;2.00;;;;;;;27.67;46.75;98580.53;2082438;28;20049;-48
2023/07/30 00:51:32;;;;;;;4.97;2.13;;;;;;;27.64;46.94;98576.41;2087830;28;20331;-48
2023/07/30 00:52:35;;;;;;;3.95;1.80;;;;;;;27.61;47.05;98576.94;2085895;28;20525;-49
2023/07/30 00:53:37;;;;;;;4.50;1.65;;;;;;;27.63;47.17;98574.75;2085795;28;20114;-48
2023/07/30 00:54:39;;;;;;;3.40;2.22;;;;;;;27.63;46.90;98574.75;2085459;28;20533;-48
2023/07/30 00:55:41;;;;;;;3.78;2.10;;;;;;;27.61;46.81;98574.22;2086372;28;20572;-48
2023/07/30 00:56:49;;;;;;;3.25;1.73;;;;;;;27.60;46.91;98573.38;2085448;28;20066;-48
2023/07/30 00:57:52;;;;;;;4.88;1.90;;;;;;;27.58;46.87;98566.56;2087452;28;20053;-49
2023/07/30 00:58:54;;;;;;;4.28;2.20;;;;;;;27.56;47.02;98579.66;2086530;28;20352;-49
2023/07/30 00:59:57;;;;;;;3.80;1.77;;;;;;;27.55;47.11;98567.94;2085607;28;20067;-49
2023/07/30 01:00:58;;;;;;;6.72;2.03;;;;;;;27.52;46.99;98568.44;2087319;28;20067;-49
2023/07/30 01:02:00;;;;;;;2.70;1.52;;;;;;;27.52;47.32;98573.06;2088107;28;20051;-48
2023/07/30 01:03:03;;;;;;;3.88;2.28;;;;;;;27.53;47.00;98564.66;2086937;28;20086;-48
2023/07/30 01:04:05;;;;;;;2.58;1.67;;;;;;;27.51;47.41;98563.25;2084896;28;20059;-49
2023/07/30 01:05:06;;;;;;;4.15;2.58;;;;;;;27.48;47.44;98569.25;2086247;28;20096;-48
2023/07/30 01:06:08;;;;;;;5.43;1.60;;;;;;;27.44;47.34;98562.66;2089066;28;20044;-48
2023/07/30 01:07:09;;;;;;;1.90;1.55;;;;;;;27.43;47.61;98563.75;2084409;28;20093;-49
2023/07/30 01:08:11;;;;;;;6.40;2.22;;;;;;;27.43;47.49;98572.75;2085782;28;20107;-48
2023/07/30 01:09:12;;;;;;;2.67;2.05;;;;;;;27.44;47.64;98565.38;2087860;28;20072;-48
2023/07/30 01:10:14;;;;;;;2.88;1.90;;;;;;;27.43;47.66;98561.03;2086790;28;20056;-49
2023/07/30 01:11:15;;;;;;;3.50;1.58;;;;;;;27.43;47.67;98569.22;2084921;28;20516;-49
2023/07/30 01:12:17;;;;;;;5.93;2.15;;;;;;;27.42;47.30;98573.03;2085907;28;20520;-50
2023/07/30 01:13:18;;;;;;;3.33;1.83;;;;;;;27.42;47.63;98568.41;2085617;28;20052;-48
2023/07/30 01:14:22;;;;;;;8.20;1.80;;;;;;;27.38;47.69;98568.06;2085884;28;20037;-51
2023/07/30 01:15:23;;;;;;;4.20;1.90;;;;;;;27.37;47.81;98557.47;2084787;28;20053;-47
2023/07/30 01:16:25;;;;;;;2.08;1.65;;;;;;;27.34;47.89;98566.16;2085175;28;20056;-48
2023/07/30 01:17:26;;;;;;;2.83;2.05;;;;;;;27.29;47.84;98556.03;2085960;28;20056;-48
2023/07/30 01:18:28;;;;;;;4.60;2.20;;;;;;;27.36;47.76;98553.09;2083529;28;20045;-50
2023/07/30 01:19:30;;;;;;;3.70;1.90;;;;;;;27.37;47.64;98552.84;2085442;28;20041;-48
2023/07/30 01:20:31;;;;;;;4.47;1.90;;;;;;;27.39;47.78;98539.78;2084946;28;20048;-49
2023/07/30 01:21:35;;;;;;;4.22;2.10;;;;;;;27.44;47.51;98543.59;2083997;28;20053;-49
2023/07/30 01:22:36;;;;;;;4.05;2.15;;;;;;;27.40;47.56;98538.69;2088851;28;20135;-51
2023/07/30 01:23:37;;;;;;;1.65;1.55;;;;;;;27.37;47.56;98527.50;2085610;28;20433;-48
2023/07/30 01:24:38;;;;;;;2.50;1.55;;;;;;;27.21;48.26;98528.50;2087383;28;20289;-48
2023/07/30 01:25:40;;;;;;;3.95;1.98;;;;;;;27.04;48.40;98525.91;2087725;28;20053;-48
2023/07/30 01:26:45;;;;;;;4.78;2.40;;;;;;;27.17;48.14;98529.03;2085539;28;20601;-48
2023/07/30 01:27:52;;;;;;;2.28;1.85;;;;;;;27.25;48.03;98525.00;2084766;28;20057;-49
2023/07/30 01:28:57;;;;;;;4.20;1.88;;;;;;;27.32;47.86;98525.56;2086275;28;20461;-48
2023/07/30 01:30:08;;;;;;;2.22;1.75;;;;;;;27.34;48.16;98523.41;2084452;28;20052;-48
2023/07/30 01:31:10;;;;;;;;;;;;;;;27.26;47.94;98525.81;2090050;28;20051;-49
2023/07/30 01:32:13;;;;;;;3.45;2.60;;;;;;;27.30;48.29;98522.31;2077803;28;20310;-49
2023/07/30 01:33:15;;;;;;;3.28;2.10;;;;;;;27.36;48.01;98525.88;2081349;28;20049;-49
2023/07/30 01:34:17;;;;;;;4.53;1.85;;;;;;;27.18;48.51;98524.38;2075939;28;20114;-48
2023/07/30 01:35:21;;;;;;;4.82;1.85;;;;;;;27.02;48.59;98517.16;2081417;28;20110;-48
2023/07/30 01:36:22;;;;;;;3.28;1.73;;;;;;;27.04;48.83;98512.28;2076959;28;20056;-48
2023/07/30 01:37:27;;;;;;;3.53;1.80;;;;;;;27.10;48.62;98516.69;2078250;28;20438;-47
2023/07/30 01:38:29;;;;;;;3.45;1.98;;;;;;;27.04;48.76;98510.38;2080518;28;20049;-50
2023/07/30 01:39:31;;;;;;;3.03;2.05;;;;;;;27.07;48.62;98506.31;2082239;28;20856;-49
2023/07/30 01:40:33;;;;;;;2.88;2.28;;;;;;;26.98;49.05;98511.44;2076230;28;20252;-49
2023/07/30 01:41:35;;;;;;;3.47;2.40;;;;;;;27.00;48.74;98503.84;2080222;28;20053;-50
2023/07/30 01:42:36;;;;;;;4.28;1.75;;;;;;;27.08;48.46;98505.22;2078676;28;20506;-49
2023/07/30 01:43:38;;;;;;;4.22;2.67;;;;;;;27.06;48.69;98504.69;2078484;28;20048;-48
2023/07/30 01:44:39;;;;;;;4.00;2.13;;;;;;;26.96;48.82;98505.44;2079769;28;20064;-50
2023/07/30 01:45:41;;;;;;;3.80;2.33;;;;;;;26.85;49.20;98501.81;2077713;28;20045;-47
2023/07/30 01:46:41;;;;;;;4.07;1.58;;;;;;;26.91;48.87;98503.50;2077966;28;20060;-48
2023/07/30 01:47:43;;;;;;;2.55;1.75;;;;;;;27.04;48.79;98504.13;2077095;28;20140;-49
2023/07/30 01:48:44;;;;;;;3.60;2.30;;;;;;;27.11;48.65;98500.09;2077962;28;20056;-47
2023/07/30 01:49:46;;;;;;;2.78;2.25;;;;;;;26.92;49.15;98502.41;2079706;28;20450;-50
2023/07/30 01:50:48;;;;;;;6.15;2.03;;;;;;;26.95;48.86;98512.78;2076692;28;20772;-49
2023/07/30 01:51:50;;;;;;;3.17;1.95;;;;;;;27.01;49.17;98515.53;2077427;28;20054;-49
2023/07/30 01:52:52;;;;;;;5.47;2.72;;;;;;;27.07;48.68;98522.66;2081968;28;20048;-48
2023/07/30 01:53:54;;;;;;;3.13;2.00;;;;;;;27.11;48.78;98526.50;2079523;28;20045;-48
2023/07/30 01:54:56;;;;;;;6.47;2.17;;;;;;;27.14;48.61;98525.97;2077439;28;20259;-48
2023/07/30 01:55:57;;;;;;;4.65;2.00;;;;;;;27.18;48.84;98527.94;2079099;28;20488;-50
2023/07/30 01:57:00;;;;;;;3.03;1.85;;;;;;;27.22;48.46;98524.69;2077305;28;20085;-47
2023/07/30 01:58:02;;;;;;;4.65;2.10;;;;;;;27.25;48.39;98525.00;2078385;28;20065;-49
2023/07/30 01:59:03;;;;;;;3.22;1.90;;;;;;;27.26;48.48;98515.72;2077728;28;20480;-48
2023/07/30 02:00:06;;;;;;;2.08;1.88;;;;;;;27.29;48.25;98519.84;2077248;28;20056;-52
2023/07/30 02:01:07;;;;;;;3.45;2.15;;;;;;;27.28;48.38;98513.56;2076799;28;20076;-50
2023/07/30 02:02:09;;;;;;;2.03;1.20;;;;;;;27.29;48.30;98515.19;2079293;28;20049;-53
2023/07/30 02:03:10;;;;;;;3.53;2.00;;;;;;;27.29;48.17;98511.66;2076458;28;20577;-48
2023/07/30 02:04:11;;;;;;;3.63;1.88;;;;;;;27.29;48.47;98517.91;2079700;28;20060;-53
2023/07/30 02:05:12;;;;;;;2.85;1.88;;;;;;;27.29;48.16;98515.19;2076207;28;20049;-53
2023/07/30 02:06:14;;;;;;;4.45;2.20;;;;;;;27.33;48.44;98508.16;2076638;28;20049;-53
2023/07/30 02:07:15;;;;;;;3.25;1.83;;;;;;;27.35;48.44;98511.41;2077500;28;20068;-52
2023/07/30 02:08:18;;;;;;;5.95;1.95;;;;;;;27.36;48.10;98510.34;2080853;28;20071;-49
2023/07/30 02:09:19;;;;;;;3.80;1.67;;;;;;;27.34;48.25;98512.50;2075607;28;20594;-51
2023/07/30 02:10:20;;;;;;;2.78;1.70;;;;;;;27.35;48.29;98508.69;2073976;28;20049;-53
2023/07/30 02:11:21;;;;;;;3.17;1.40;;;;;;;27.35;48.48;98522.31;2086674;28;20264;-53
2023/07/30 02:12:23;;;;;;;3.00;1.63;;;;;;;27.34;48.25;98520.69;2086889;28;20052;-52
2023/07/30 02:13:24;;;;;;;2.53;1.30;;;;;;;27.30;48.55;98522.31;2087399;28;20072;-51
2023/07/30 02:14:26;;;;;;;4.15;2.05;;;;;;;27.33;48.35;98524.50;2087624;28;20102;-49
2023/07/30 02:15:27;;;;;;;4.82;2.13;;;;;;;27.35;48.37;98519.59;2088309;28;20498;-50
2023/07/30 02:16:29;;;;;;;5.47;1.95;;;;;;;27.37;48.43;98517.44;2087259;28;20090;-54
2023/07/30 02:17:29;;;;;;;5.07;1.80;;;;;;;27.37;48.12;98522.06;2084127;28;20051;-49
2023/07/30 02:18:31;;;;;;;4.85;2.50;;;;;;;27.39;48.41;98526.16;2085179;28;20052;-54
2023/07/30 02:19:32;;;;;;;3.80;1.90;;;;;;;27.38;48.24;98521.78;2084380;28;20483;-53
2023/07/30 02:20:34;;;;;;;3.38;2.00;;;;;;;27.39;48.27;98523.44;2084967;28;20330;-52
2023/07/30 02:21:36;;;;;;;4.32;2.85;;;;;;;27.39;48.31;98518.00;2085118;28;20075;-50
2023/07/30 02:22:38;;;;;;;4.80;2.00;;;;;;;27.43;48.37;98517.47;2086420;28;20052;-53
2023/07/30 02:23:40;;;;;;;2.83;2.10;;;;;;;27.45;48.26;98523.47;2086148;28;20049;-51
2023/07/30 02:24:41;;;;;;;4.45;1.95;;;;;;;27.49;48.08;98530.00;2087197;28;20499;-52
2023/07/30 02:25:43;;;;;;;3.65;2.40;;;;;;;27.49;48.29;98530.00;2085327;28;20053;-51
2023/07/30 02:26:44;;;;;;;6.13;2.00;;;;;;;27.49;47.89;98527.28;2086298;28;20649;-49
2023/07/30 02:27:45;;;;;;;3.60;1.88;;;;;;;27.48;48.24;98533.84;2084924;28;20868;-49
2023/07/30 02:28:46;;;;;;;5.35;2.25;;;;;;;27.48;48.00;98529.19;2085696;28;20091;-53
2023/07/30 02:29:48;;;;;;;5.38;2.08;;;;;;;27.45;48.04;98528.91;2087284;28;20060;-50
2023/07/30 02:30:49;;;;;;;4.35;2.08;;;;;;;27.46;47.97;98530.53;2086709;28;20077;-50
2023/07/30 02:31:50;;;;;;;5.68;2.00;;;;;;;27.48;48.10;98534.66;2085314;28;20551;-51
2023/07/30 02:32:51;;;;;;;2.67;1.88;;;;;;;27.51;48.03;98542.28;2085631;28;20041;-54
2023/07/30 02:33:53;;;;;;;5.90;1.92;;;;;;;27.53;48.15;98540.13;2084381;28;20074;-53
2023/07/30 02:34:53;;;;;;;3.42;1.90;;;;;;;27.54;47.95;98538.22;2084900;28;20529;-53
2023/07/30 02:35:55;;;;;;;3.70;2.00;;;;;;;27.51;47.77;98533.31;2084598;28;20102;-53
2023/07/30 02:36:56;;;;;;;4.75;1.88;;;;;;;27.54;48.05;98532.78;2084211;28;20064;-52
2023/07/30 02:37:58;;;;;;;3.00;1.88;;;;;;;27.55;47.96;98529.78;2085410;28;20063;-50
2023/07/30 02:39:00;;;;;;;4.13;1.98;;;;;;;27.55;47.94;98526.22;2086248;28;20300;-53
2023/07/30 02:40:04;;;;;;;3.75;1.77;;;;;;;27.55;47.88;98531.66;2084614;28;20049;-53
2023/07/30 02:41:05;;;;;;;2.40;2.10;;;;;;;27.53;47.97;98536.59;2086451;28;20097;-51
2023/07/30 02:42:07;;;;;;;4.43;2.20;;;;;;;27.54;47.88;98532.78;2086516;28;20041;-53
2023/07/30 02:43:08;;;;;;;2.00;1.80;;;;;;;27.55;47.89;98535.25;2085364;28;20453;-51
2023/07/30 02:44:09;;;;;;;4.50;1.65;;;;;;;27.55;47.74;98542.56;2086816;28;20052;-52
2023/07/30 02:45:10;;;;;;;2.88;1.73;;;;;;;27.54;47.95;98535.50;2083208;28;20040;-51
2023/07/30 02:46:11;;;;;;;2.80;1.48;;;;;;;27.53;47.79;98536.59;2086831;28;20078;-53
2023/07/30 02:47:13;;;;;;;3.88;1.65;;;;;;;27.55;47.70;98537.13;2080634;28;20086;-54
2023/07/30 02:48:13;;;;;;;4.38;2.28;;;;;;;27.56;47.87;98538.78;2087288;28;20180;-51
2023/07/30 02:49:15;;;;;;;2.90;1.52;;;;;;;27.55;47.80;98537.13;2083178;28;20657;-52
2023/07/30 02:50:16;;;;;;;2.67;1.63;;;;;;;27.56;47.88;98549.69;2086997;28;20132;-53
2023/07/30 02:51:18;;;;;;;1.85;1.50;;;;;;;27.53;48.04;98547.47;2086405;28;20556;-49
2023/07/30 02:52:18;;;;;;;2.53;2.00;;;;;;;27.54;47.99;98549.94;2084477;28;20175;-53
2023/07/30 02:53:20;;;;;;;2.83;1.90;;;;;;;27.55;47.96;98558.91;2085744;28;20243;-52
2023/07/30 02:54:23;;;;;;;2.55;1.42;;;;;;;27.56;47.55;98555.94;2087600;28;20053;-52
2023/07/30 02:55:24;;;;;;;4.90;2.17;;;;;;;27.57;47.73;98562.19;2083546;28;20075;-53
2023/07/30 02:56:25;;;;;;;1.75;1.40;;;;;;;27.58;47.85;98555.66;2085740;28;20048;-54
2023/07/30 02:57:26;;;;;;;5.28;1.67;;;;;;;27.56;47.99;98553.22;2087239;28;20529;-50
2023/07/30 02:58:28;;;;;;;3.10;1.60;;;;;;;27.58;47.73;98552.94;2084869;28;21390;-50
2023/07/30 02:59:28;;;;;;;2.72;1.45;;;;;;;27.57;47.58;98554.84;2085212;28;20045;-53
2023/07/30 03:00:30;;;;;;;3.20;1.85;;;;;;;27.59;47.59;98555.41;2085446;28;20045;-50
2023/07/30 03:01:31;;;;;;;4.50;1.70;;;;;;;27.59;47.85;98558.13;2086926;28;20048;-54
2023/07/30 03:02:33;;;;;;;3.15;2.20;;;;;;;27.61;47.69;98552.44;2085359;28;20052;-49
2023/07/30 03:03:34;;;;;;;3.35;1.55;;;;;;;27.57;47.79;98554.84;2083642;28;20045;-49
2023/07/30 03:04:35;;;;;;;2.75;1.67;;;;;;;27.59;47.82;98552.69;2087734;28;20090;-50
2023/07/30 03:05:36;;;;;;;3.83;1.95;;;;;;;27.59;47.82;98551.88;2086533;28;20923;-53
2023/07/30 03:06:38;;;;;;;3.03;1.67;;;;;;;27.59;47.94;98546.41;2086469;28;20040;-53
2023/07/30 03:07:39;;;;;;;3.95;2.85;;;;;;;27.58;47.82;98547.47;2084597;28;20569;-54
2023/07/30 03:08:39;;;;;;;3.90;2.00;;;;;;;27.58;47.93;98544.75;2086338;28;20060;-52
2023/07/30 03:09:42;;;;;;;3.05;1.50;;;;;;;27.59;47.81;98540.97;2086193;28;20253;-49
2023/07/30 03:10:43;;;;;;;3.28;2.42;;;;;;;27.57;48.09;98533.06;2085672;28;20209;-54
2023/07/30 03:11:45;;;;;;;4.07;2.30;;;;;;;27.51;48.09;98534.13;2087954;28;20616;-52
2023/07/30 03:12:46;;;;;;;3.17;1.50;;;;;;;27.40;48.51;98535.97;2087541;28;20102;-49
2023/07/30 03:13:47;;;;;;;3.15;1.83;;;;;;;27.29;48.74;98525.28;2085638;28;20056;-49
2023/07/30 03:14:48;;;;;;;5.90;2.10;;;;;;;27.21;49.00;98525.78;2086415;28;20080;-48
2023/07/30 03:15:49;;;;;;;2.72;1.95;;;;;;;27.27;48.84;98525.53;2085289;28;20055;-49
2023/07/30 03:16:51;;;;;;;4.18;1.70;;;;;;;27.24;48.74;98528.78;2085544;28;20041;-51
2023/07/30 03:17:51;;;;;;;6.47;2.60;;;;;;;27.26;48.60;98517.63;2088255;28;20144;-52
2023/07/30 03:18:53;;;;;;;4.65;2.45;;;;;;;27.26;48.51;98521.19;2086758;28;20515;-51
2023/07/30 03:19:54;;;;;;;3.55;1.48;;;;;;;27.21;48.70;98518.41;2086540;28;20083;-48
2023/07/30 03:20:59;;;;;;;4.00;1.60;;;;;;;27.12;48.93;98526.22;2084886;28;20049;-53
2023/07/30 03:22:00;;;;;;;6.03;1.67;;;;;;;27.10;48.74;98527.56;2085682;28;20063;-50
2023/07/30 03:23:02;;;;;;;3.58;2.20;;;;;;;27.12;48.81;98525.41;2085010;28;20098;-52
2023/07/30 03:24:03;;;;;;;4.13;1.30;;;;;;;27.17;49.02;98514.59;2086281;28;20068;-51
2023/07/30 03:25:07;;;;;;;5.28;2.00;;;;;;;27.16;48.78;98523.81;2086124;28;20629;-54
2023/07/30 03:26:07;;;;;;;3.60;1.73;;;;;;;27.13;49.11;98527.84;2082199;28;20120;-53
2023/07/30 03:27:09;;;;;;;3.28;1.40;;;;;;;27.02;48.91;98522.63;2086682;28;20053;-54
2023/07/30 03:28:10;;;;;;;2.35;1.60;;;;;;;27.00;49.33;98522.06;2085366;28;20048;-52
2023/07/30 03:29:12;;;;;;;3.67;2.05;;;;;;;27.04;49.33;98523.19;2087978;28;20118;-51
2023/07/30 03:30:12;;;;;;;3.47;1.73;;;;;;;27.03;49.33;98522.38;2085594;28;20048;-51
2023/07/30 03:31:14;;;;;;;3.65;2.05;;;;;;;27.01;49.14;98521.81;2082608;28;20400;-48
2023/07/30 03:32:15;;;;;;;2.63;1.50;;;;;;;27.00;49.26;98514.72;2083335;28;20126;-49
2023/07/30 03:33:17;;;;;;;5.40;1.65;;;;;;;27.05;49.11;98522.09;2086660;28;20056;-51
2023/07/30 03:34:17;;;;;;;2.55;1.38;;;;;;;27.03;49.15;98522.38;2084530;28;20813;-52
2023/07/30 03:35:19;;;;;;;2.53;1.40;;;;;;;27.05;48.96;98522.94;2087162;28;20064;-52
2023/07/30 03:36:21;;;;;;;4.18;1.90;;;;;;;27.10;48.81;98522.13;2085506;28;20296;-52
2023/07/30 03:37:22;;;;;;;2.22;1.90;;;;;;;27.13;48.78;98527.03;2085376;28;20101;-49
2023/07/30 03:38:24;;;;;;;1.90;1.70;;;;;;;27.13;48.85;98529.78;2086614;28;20052;-50
2023/07/30 03:39:24;;;;;;;2.83;1.80;;;;;;;27.11;49.16;98530.03;2086712;28;20672;-53
2023/07/30 03:40:28;;;;;;;3.55;1.70;;;;;;;27.15;48.56;98530.34;2087399;28;20073;-51
2023/07/30 03:41:29;;;;;;;2.15;1.50;;;;;;;27.18;49.04;98538.00;2085138;28;20127;-55
2023/07/30 03:42:30;;;;;;;2.90;1.88;;;;;;;27.21;48.65;98537.47;2085905;28;20045;-53
2023/07/30 03:43:31;;;;;;;4.00;2.30;;;;;;;27.22;48.87;98532.84;2087811;28;20052;-49
2023/07/30 03:44:33;;;;;;;4.65;1.75;;;;;;;27.20;48.77;98533.13;2084746;28;20344;-51
2023/07/30 03:45:34;;;;;;;2.28;1.60;;;;;;;27.12;48.97;98526.22;2085830;28;20055;-55
2023/07/30 03:46:35;;;;;;;3.75;1.60;;;;;;;27.06;49.24;98521.84;2084565;28;20419;-54
2023/07/30 03:47:36;;;;;;;4.72;2.17;;;;;;;27.07;49.40;98517.22;2087543;28;20089;-53
2023/07/30 03:48:38;;;;;;;6.13;2.42;;;;;;;27.08;49.17;98521.56;2085821;28;20098;-50
2023/07/30 03:49:40;;;;;;;3.60;2.38;;;;;;;27.08;49.06;98518.84;2084617;28;20507;-52
2023/07/30 03:50:40;;;;;;;3.90;1.80;;;;;;;27.03;49.03;98527.81;2087747;28;20504;-54
2023/07/30 03:51:42;;;;;;;3.47;1.42;;;;;;;27.04;49.38;98523.19;2087838;28;20044;-52
2023/07/30 03:52:43;;;;;;;6.35;2.20;;;;;;;27.02;49.52;98526.16;2086871;28;20064;-52
2023/07/30 03:53:45;;;;;;;2.42;2.00;;;;;;;27.07;48.99;98528.09;2086225;28;20055;-54
2023/07/30 03:54:45;;;;;;;2.90;1.70;;;;;;;27.10;49.30;98533.84;2089251;28;20583;-54
2023/07/30 03:55:49;;;;;;;1.95;1.40;;;;;;;27.13;49.05;98529.78;2086234;28;20129;-52
2023/07/30 03:56:49;;;;;;;3.45;1.80;;;;;;;27.16;49.00;98529.28;2087838;28;20052;-52
2023/07/30 03:57:51;;;;;;;2.08;1.80;;;;;;;27.17;49.20;98531.75;2084328;28;20087;-49
2023/07/30 03:58:52;;;;;;;2.80;1.80;;;;;;;27.20;48.92;98524.97;2086557;28;20489;-54
2023/07/30 03:59:53;;;;;;;4.35;1.70;;;;;;;27.21;48.87;98523.88;2084605;28;20066;-51
2023/07/30 04:00:54;;;;;;;2.38;1.35;;;;;;;27.24;48.86;98530.69;2086515;28;20494;-49
2023/07/30 04:01:56;;;;;;;4.50;1.75;;;;;;;27.22;49.14;98520.06;2084675;28;20056;-51
2023/07/30 04:02:57;;;;;;;2.20;1.88;;;;;;;27.23;48.78;98526.34;2084780;28;20056;-51
2023/07/30 04:03:59;;;;;;;1.98;1.77;;;;;;;27.21;48.97;98526.59;2083214;28;20087;-49
2023/07/30 04:05:00;;;;;;;4.93;2.33;;;;;;;27.20;49.15;98530.41;2083363;28;20052;-52
2023/07/30 04:06:01;;;;;;;3.25;1.60;;;;;;;27.24;48.84;98523.34;2085280;28;20048;-50
2023/07/30 04:07:03;;;;;;;4.13;2.03;;;;;;;27.24;48.93;98527.97;2086381;28;20531;-52
2023/07/30 04:08:03;;;;;;;2.10;1.77;;;;;;;27.23;48.95;98531.78;2085492;28;21297;-52
2023/07/30 04:09:05;;;;;;;2.00;1.63;;;;;;;27.25;48.97;98530.44;2085249;28;20621;-48
2023/07/30 04:10:07;;;;;;;3.33;1.85;;;;;;;27.22;49.12;98528.25;2084254;28;20587;-52
2023/07/30 04:11:10;;;;;;;2.38;1.40;;;;;;;27.21;49.29;98526.59;2085027;28;20420;-53
2023/07/30 04:12:10;;;;;;;4.97;1.80;;;;;;;27.20;48.93;98524.97;2083545;28;20052;-53
2023/07/30 04:13:12;;;;;;;3.30;1.98;;;;;;;27.21;48.93;98523.88;2086577;28;20044;-54
2023/07/30 04:14:13;;;;;;;3.22;1.73;;;;;;;27.23;48.93;98518.97;2086377;28;20080;-52
2023/07/30 04:15:16;;;;;;;6.57;2.03;;;;;;;27.24;48.98;98517.88;2085718;28;20548;-51
2023/07/30 04:16:16;;;;;;;2.63;1.75;;;;;;;27.25;49.08;98516.00;2086075;28;20150;-51
2023/07/30 04:17:17;;;;;;;3.65;1.60;;;;;;;27.01;49.89;98515.53;2085636;28;20126;-48
2023/07/30 04:18:19;;;;;;;4.20;2.25;;;;;;;26.96;49.91;98511.69;2083810;28;20659;-51
2023/07/30 04:19:20;;;;;;;3.08;1.98;;;;;;;26.96;50.58;98517.13;2078104;28;20055;-49
2023/07/30 04:20:22;;;;;;;4.05;1.77;;;;;;;26.91;51.24;98517.13;2077329;28;20049;-53
2023/07/30 04:21:23;;;;;;;4.97;2.05;;;;;;;26.88;50.93;98516.78;2075277;28;20154;-49
2023/07/30 04:22:26;;;;;;;4.18;2.35;;;;;;;26.85;51.06;98512.69;2076902;28;20064;-52
2023/07/30 04:23:26;;;;;;;3.42;2.08;;;;;;;26.72;52.29;98513.16;2076216;28;20080;-53
2023/07/30 04:24:28;;;;;;;6.90;1.98;;;;;;;26.67;52.90;98516.66;2078724;28;20188;-49
2023/07/30 04:25:29;;;;;;;6.00;1.95;;;;;;;26.71;51.91;98516.94;2074516;28;20548;-53
2023/07/30 04:26:32;;;;;;;3.00;1.80;;;;;;;26.71;52.51;98525.91;2076748;28;20355;-50
2023/07/30 04:27:33;;;;;;;4.07;2.00;;;;;;;26.69;52.91;98527.25;2076509;28;20064;-53
2023/07/30 04:28:34;;;;;;;5.50;2.17;;;;;;;26.67;52.85;98524.00;2074380;28;20046;-49
2023/07/30 04:29:35;;;;;;;3.55;1.65;;;;;;;26.59;53.37;98524.47;2077720;28;20498;-52
2023/07/30 04:30:37;;;;;;;4.60;2.10;;;;;;;26.55;52.98;98529.63;2076851;28;20053;-48
2023/07/30 04:31:38;;;;;;;7.40;2.75;;;;;;;26.59;53.02;98527.19;2074035;28;20045;-50
2023/07/30 04:32:39;;;;;;;4.43;1.98;;;;;;;26.65;52.64;98528.88;2077341;28;20299;-50
2023/07/30 04:33:40;;;;;;;3.33;2.42;;;;;;;26.63;52.63;98520.13;2074884;28;20084;-51
2023/07/30 04:34:41;;;;;;;7.93;2.42;;;;;;;26.63;52.84;98526.41;2075800;28;20080;-53
2023/07/30 04:35:43;;;;;;;3.30;2.03;;;;;;;26.63;52.71;98522.84;2077896;28;20049;-49
2023/07/30 04:36:43;;;;;;;5.80;2.17;;;;;;;26.47;53.87;98521.88;2078017;28;20051;-54
2023/07/30 04:37:45;;;;;;;3.63;2.15;;;;;;;26.29;54.98;98523.06;2076132;28;20048;-53
2023/07/30 04:38:46;;;;;;;3.97;2.80;;;;;;;26.26;55.34;98529.03;2078253;28;20045;-53
2023/07/30 04:39:49;;;;;;;5.25;2.35;;;;;;;26.28;54.54;98522.25;2077451;28;20380;-49
2023/07/30 04:40:50;;;;;;;6.10;2.20;;;;;;;26.37;54.33;98533.47;2075300;28;20076;-54
2023/07/30 04:41:53;;;;;;;3.90;1.98;;;;;;;26.45;53.81;98530.28;2077507;28;20060;-54
2023/07/30 04:42:54;;;;;;;4.88;2.03;;;;;;;26.50;54.40;98532.25;2079928;28;20904;-50
2023/07/30 04:43:55;;;;;;;5.25;2.08;;;;;;;26.40;55.11;98530.25;2083961;28;20048;-52
2023/07/30 04:44:56;;;;;;;6.18;1.90;;;;;;;26.42;54.90;98525.38;2083986;28;20462;-50
2023/07/30 04:45:58;;;;;;;3.10;2.40;;;;;;;26.42;54.62;98532.72;2085373;28;20445;-49
2023/07/30 04:46:58;;;;;;;3.42;2.13;;;;;;;26.41;55.59;98534.63;2088604;28;20090;-50
2023/07/30 04:48:00;;;;;;;5.47;2.65;;;;;;;26.42;55.40;98533.53;2086993;28;20048;-51
2023/07/30 04:49:02;;;;;;;5.47;2.35;;;;;;;26.42;55.13;98528.09;2084474;28;20303;-52
2023/07/30 04:50:05;;;;;;;7.07;2.03;;;;;;;26.27;56.23;98536.09;2083016;28;20241;-49